sensor_id;sensor_type;location;lat;lon;timestamp;P1;durP1;ratioP1;P2;durP2;ratioP2
57301;SDS011;43149;50.974;18.224;2023-04-25T00:07:53;9.70;;;6.70;;
57301;SDS011;43149;50.974;18.224;2023-04-25T00:17:37;4.30;;;2.90;;
57301;SDS011;43149;50.974;18.224;2023-04-25T00:27:25;7.40;;;5.00;;
57301;SDS011;43149;50.974;18.224;2023-04-25T00:37:09;4.10;;;3.70;;
57301;SDS011;43149;50.974;18.224;2023-04-25T00:46:54;6.00;;;2.40;;
57301;SDS011;43149;50.974;18.224;2023-04-25T00:56:38;1.60;;;1.50;;
57301;SDS011;43149;50.974;18.224;2023-04-25T01:06:23;9.80;;;1.10;;
57301;SDS011;43149;50.974;18.224;2023-04-25T01:16:08;1.90;;;1.60;;
57301;SDS011;43149;50.974;18.224;2023-04-25T01:25:58;1.80;;;1.70;;
57301;SDS011;43149;50.974;18.224;2023-04-25T01:35:41;2.20;;;2.00;;
57301;SDS011;43149;50.974;18.224;2023-04-25T01:45:25;1.60;;;1.30;;
57301;SDS011;43149;50.974;18.224;2023-04-25T01:55:09;0.60;;;0.50;;
57301;SDS011;43149;50.974;18.224;2023-04-25T02:04:54;79.90;;;1.10;;
57301;SDS011;43149;50.974;18.224;2023-04-25T02:14:38;1.30;;;1.20;;
57301;SDS011;43149;50.974;18.224;2023-04-25T02:24:22;8.40;;;1.00;;
57301;SDS011;43149;50.974;18.224;2023-04-25T02:34:06;0.90;;;0.90;;
57301;SDS011;43149;50.974;18.224;2023-04-25T02:43:52;4.40;;;1.40;;
57301;SDS011;43149;50.974;18.224;2023-04-25T02:48:43;4.30;;;2.80;;
57301;SDS011;43149;50.974;18.224;2023-04-25T02:58:27;2.50;;;1.80;;
57301;SDS011;43149;50.974;18.224;2023-04-25T03:08:16;6.70;;;4.80;;
57301;SDS011;43149;50.974;18.224;2023-04-25T03:18:00;35.80;;;4.80;;
57301;SDS011;43149;50.974;18.224;2023-04-25T03:22:52;5.40;;;4.80;;
57301;SDS011;43149;50.974;18.224;2023-04-25T03:32:36;2.70;;;2.50;;
57301;SDS011;43149;50.974;18.224;2023-04-25T03:42:19;4.30;;;3.50;;
57301;SDS011;43149;50.974;18.224;2023-04-25T03:52:06;3.10;;;1.80;;
57301;SDS011;43149;50.974;18.224;2023-04-25T04:01:51;4.10;;;2.00;;
57301;SDS011;43149;50.974;18.224;2023-04-25T04:11:37;6.50;;;2.60;;
57301;SDS011;43149;50.974;18.224;2023-04-25T04:21:22;6.10;;;1.70;;
57301;SDS011;43149;50.974;18.224;2023-04-25T04:31:09;2.60;;;1.70;;
57301;SDS011;43149;50.974;18.224;2023-04-25T04:40:54;1.40;;;1.30;;
57301;SDS011;43149;50.974;18.224;2023-04-25T04:50:42;1.60;;;1.50;;
57301;SDS011;43149;50.974;18.224;2023-04-25T05:00:27;4.40;;;3.80;;
57301;SDS011;43149;50.974;18.224;2023-04-25T05:10:12;7.40;;;4.10;;
57301;SDS011;43149;50.974;18.224;2023-04-25T05:19:58;2.90;;;1.50;;
57301;SDS011;43149;50.974;18.224;2023-04-25T05:29:42;4.10;;;3.70;;
57301;SDS011;43149;50.974;18.224;2023-04-25T05:39:28;6.90;;;2.80;;
57301;SDS011;43149;50.974;18.224;2023-04-25T05:49:11;5.60;;;3.40;;
57301;SDS011;43149;50.974;18.224;2023-04-25T05:58:56;12.20;;;5.40;;
57301;SDS011;43149;50.974;18.224;2023-04-25T06:08:40;15.20;;;8.40;;
57301;SDS011;43149;50.974;18.224;2023-04-25T06:18:24;11.30;;;4.80;;
57301;SDS011;43149;50.974;18.224;2023-04-25T06:28:07;3.50;;;2.40;;
57301;SDS011;43149;50.974;18.224;2023-04-25T06:37:51;3.70;;;3.20;;
57301;SDS011;43149;50.974;18.224;2023-04-25T06:47:34;7.10;;;4.20;;
57301;SDS011;43149;50.974;18.224;2023-04-25T06:57:17;9.30;;;6.40;;
57301;SDS011;43149;50.974;18.224;2023-04-25T07:07:00;12.40;;;5.00;;
57301;SDS011;43149;50.974;18.224;2023-04-25T07:16:45;3.00;;;2.80;;
57301;SDS011;43149;50.974;18.224;2023-04-25T07:26:28;3.20;;;2.30;;
57301;SDS011;43149;50.974;18.224;2023-04-25T07:36:12;15.90;;;2.70;;
57301;SDS011;43149;50.974;18.224;2023-04-25T07:45:57;7.10;;;2.20;;
57301;SDS011;43149;50.974;18.224;2023-04-25T07:55:40;2.70;;;2.50;;
57301;SDS011;43149;50.974;18.224;2023-04-25T08:05:26;2.80;;;2.60;;
57301;SDS011;43149;50.974;18.224;2023-04-25T08:10:18;8.80;;;5.00;;
57301;SDS011;43149;50.974;18.224;2023-04-25T08:20:02;3.80;;;2.90;;
57301;SDS011;43149;50.974;18.224;2023-04-25T08:29:49;3.60;;;2.70;;
57301;SDS011;43149;50.974;18.224;2023-04-25T08:39:38;5.10;;;3.10;;
57301;SDS011;43149;50.974;18.224;2023-04-25T08:49:31;3.80;;;0.60;;
57301;SDS011;43149;50.974;18.224;2023-04-25T08:59:20;3.70;;;3.40;;
57301;SDS011;43149;50.974;18.224;2023-04-25T09:09:04;4.40;;;3.70;;
57301;SDS011;43149;50.974;18.224;2023-04-25T09:19:22;10.40;;;4.40;;
57301;SDS011;43149;50.974;18.224;2023-04-25T09:29:29;6.10;;;2.20;;
57301;SDS011;43149;50.974;18.224;2023-04-25T09:39:42;8.30;;;2.40;;
57301;SDS011;43149;50.974;18.224;2023-04-25T09:49:28;5.70;;;2.20;;
57301;SDS011;43149;50.974;18.224;2023-04-25T09:59:21;4.90;;;2.10;;
57301;SDS011;43149;50.974;18.224;2023-04-25T10:01:50;7.90;;;4.80;;
57301;SDS011;43149;50.974;18.224;2023-04-25T10:11:43;4.90;;;3.20;;
57301;SDS011;43149;50.974;18.224;2023-04-25T10:21:28;4.00;;;2.90;;
57301;SDS011;43149;50.974;18.224;2023-04-25T10:31:23;1.90;;;1.80;;
57301;SDS011;43149;50.974;18.224;2023-04-25T10:41:13;14.10;;;4.90;;
57301;SDS011;43149;50.974;18.224;2023-04-25T10:51:09;4.70;;;3.70;;
57301;SDS011;43149;50.974;18.224;2023-04-25T11:01:07;3.20;;;2.50;;
57301;SDS011;43149;50.974;18.224;2023-04-25T11:11:00;4.90;;;3.00;;
57301;SDS011;43149;50.974;18.224;2023-04-25T11:20:51;3.20;;;2.90;;
57301;SDS011;43149;50.974;18.224;2023-04-25T11:30:34;12.10;;;2.80;;
57301;SDS011;43149;50.974;18.224;2023-04-25T11:40:17;5.10;;;2.80;;
57301;SDS011;43149;50.974;18.224;2023-04-25T11:50:02;6.60;;;3.90;;
57301;SDS011;43149;50.974;18.224;2023-04-25T12:00:08;5.70;;;3.00;;
57301;SDS011;43149;50.974;18.224;2023-04-25T12:09:57;5.20;;;2.40;;
57301;SDS011;43149;50.974;18.224;2023-04-25T12:19:48;11.20;;;2.60;;
57301;SDS011;43149;50.974;18.224;2023-04-25T12:29:50;14.70;;;3.20;;
57301;SDS011;43149;50.974;18.224;2023-04-25T12:39:38;2.80;;;2.10;;
57301;SDS011;43149;50.974;18.224;2023-04-25T12:49:21;1.60;;;1.50;;
57301;SDS011;43149;50.974;18.224;2023-04-25T12:59:05;3.80;;;3.20;;
57301;SDS011;43149;50.974;18.224;2023-04-25T13:08:49;0.80;;;0.80;;
57301;SDS011;43149;50.974;18.224;2023-04-25T13:18:33;2.70;;;1.50;;
57301;SDS011;43149;50.974;18.224;2023-04-25T13:28:16;1.30;;;1.20;;
57301;SDS011;43149;50.974;18.224;2023-04-25T13:38:01;1.20;;;1.10;;
57301;SDS011;43149;50.974;18.224;2023-04-25T13:47:45;1.60;;;1.50;;
57301;SDS011;43149;50.974;18.224;2023-04-25T13:57:35;3.40;;;1.20;;
57301;SDS011;43149;50.974;18.224;2023-04-25T14:07:24;1.30;;;0.60;;
57301;SDS011;43149;50.974;18.224;2023-04-25T14:17:08;2.60;;;1.50;;
57301;SDS011;43149;50.974;18.224;2023-04-25T14:27:00;1.70;;;1.60;;
57301;SDS011;43149;50.974;18.224;2023-04-25T14:36:45;2.10;;;0.90;;
57301;SDS011;43149;50.974;18.224;2023-04-25T14:46:30;2.60;;;1.10;;
57301;SDS011;43149;50.974;18.224;2023-04-25T14:56:13;1.80;;;1.60;;
57301;SDS011;43149;50.974;18.224;2023-04-25T15:05:58;5.00;;;1.50;;
57301;SDS011;43149;50.974;18.224;2023-04-25T15:15:43;25.80;;;1.20;;
57301;SDS011;43149;50.974;18.224;2023-04-25T15:25:28;1.40;;;1.30;;
57301;SDS011;43149;50.974;18.224;2023-04-25T15:35:13;5.50;;;3.00;;
57301;SDS011;43149;50.974;18.224;2023-04-25T15:45:06;9.70;;;3.40;;
57301;SDS011;43149;50.974;18.224;2023-04-25T15:54:51;33.30;;;2.00;;
57301;SDS011;43149;50.974;18.224;2023-04-25T16:04:35;4.20;;;2.50;;
57301;SDS011;43149;50.974;18.224;2023-04-25T16:14:19;1.00;;;0.70;;
57301;SDS011;43149;50.974;18.224;2023-04-25T16:24:03;2.90;;;1.70;;
57301;SDS011;43149;50.974;18.224;2023-04-25T16:33:46;1.10;;;1.00;;
57301;SDS011;43149;50.974;18.224;2023-04-25T16:43:32;5.30;;;1.40;;
57301;SDS011;43149;50.974;18.224;2023-04-25T16:53:17;7.90;;;2.80;;
57301;SDS011;43149;50.974;18.224;2023-04-25T17:03:02;4.50;;;2.60;;
57301;SDS011;43149;50.974;18.224;2023-04-25T17:12:47;4.00;;;1.80;;
57301;SDS011;43149;50.974;18.224;2023-04-25T17:22:33;15.20;;;2.00;;
57301;SDS011;43149;50.974;18.224;2023-04-25T17:32:17;1.60;;;1.50;;
57301;SDS011;43149;50.974;18.224;2023-04-25T17:42:09;6.30;;;3.40;;
57301;SDS011;43149;50.974;18.224;2023-04-25T17:51:55;3.80;;;1.30;;
57301;SDS011;43149;50.974;18.224;2023-04-25T18:01:38;3.50;;;3.20;;
57301;SDS011;43149;50.974;18.224;2023-04-25T18:11:27;7.20;;;3.70;;
57301;SDS011;43149;50.974;18.224;2023-04-25T18:28:36;3.60;;;2.60;;
57301;SDS011;43149;50.974;18.224;2023-04-25T18:38:22;2.90;;;2.20;;
57301;SDS011;43149;50.974;18.224;2023-04-25T18:48:06;2.20;;;2.10;;
57301;SDS011;43149;50.974;18.224;2023-04-25T18:57:51;3.80;;;3.50;;
57301;SDS011;43149;50.974;18.224;2023-04-25T19:07:35;4.30;;;3.10;;
57301;SDS011;43149;50.974;18.224;2023-04-25T19:17:20;0.70;;;0.70;;
57301;SDS011;43149;50.974;18.224;2023-04-25T19:27:05;36.90;;;6.90;;
57301;SDS011;43149;50.974;18.224;2023-04-25T19:36:50;4.00;;;3.70;;
57301;SDS011;43149;50.974;18.224;2023-04-25T19:46:37;12.20;;;3.80;;
57301;SDS011;43149;50.974;18.224;2023-04-25T19:56:22;8.60;;;3.10;;
57301;SDS011;43149;50.974;18.224;2023-04-25T20:06:07;8.40;;;2.70;;
57301;SDS011;43149;50.974;18.224;2023-04-25T20:15:51;18.40;;;4.00;;
57301;SDS011;43149;50.974;18.224;2023-04-25T20:25:36;16.90;;;7.00;;
57301;SDS011;43149;50.974;18.224;2023-04-25T20:35:19;17.80;;;5.40;;
57301;SDS011;43149;50.974;18.224;2023-04-25T20:45:05;12.30;;;3.30;;
57301;SDS011;43149;50.974;18.224;2023-04-25T20:54:55;16.80;;;6.10;;
57301;SDS011;43149;50.974;18.224;2023-04-25T21:04:41;14.00;;;6.20;;
57301;SDS011;43149;50.974;18.224;2023-04-25T21:14:33;26.20;;;7.20;;
57301;SDS011;43149;50.974;18.224;2023-04-25T21:24:15;26.90;;;6.40;;
57301;SDS011;43149;50.974;18.224;2023-04-25T21:33:58;9.70;;;5.90;;
57301;SDS011;43149;50.974;18.224;2023-04-25T21:43:43;15.20;;;6.90;;
57301;SDS011;43149;50.974;18.224;2023-04-25T22:00:44;37.10;;;23.90;;
57301;SDS011;43149;50.974;18.224;2023-04-25T22:10:28;19.80;;;8.50;;
57301;SDS011;43149;50.974;18.224;2023-04-25T22:20:16;23.80;;;14.40;;
57301;SDS011;43149;50.974;18.224;2023-04-25T22:30:06;22.60;;;8.50;;
57301;SDS011;43149;50.974;18.224;2023-04-25T22:39:55;28.80;;;13.60;;
57301;SDS011;43149;50.974;18.224;2023-04-25T22:49:38;21.50;;;10.20;;
57301;SDS011;43149;50.974;18.224;2023-04-25T22:59:25;26.30;;;12.80;;
57301;SDS011;43149;50.974;18.224;2023-04-25T23:09:09;23.80;;;11.20;;
57301;SDS011;43149;50.974;18.224;2023-04-25T23:18:55;32.70;;;17.00;;
57301;SDS011;43149;50.974;18.224;2023-04-25T23:28:38;24.20;;;9.70;;
57301;SDS011;43149;50.974;18.224;2023-04-25T23:38:24;18.50;;;8.90;;
57301;SDS011;43149;50.974;18.224;2023-04-25T23:48:09;12.90;;;10.30;;
57301;SDS011;43149;50.974;18.224;2023-04-25T23:57:54;19.70;;;9.90;;
